sensor_id;sensor_type;location;lat;lon;timestamp;P1;durP1;ratioP1;P2;durP2;ratioP2
69185;SDS011;56298;49.246;9.410;2023-05-21T00:02:01;24.35;;;15.50;;
69185;SDS011;56298;49.246;9.410;2023-05-21T00:04:28;23.02;;;15.65;;
69185;SDS011;56298;49.246;9.410;2023-05-21T00:06:55;23.65;;;15.60;;
69185;SDS011;56298;49.246;9.410;2023-05-21T00:09:21;22.87;;;15.47;;
69185;SDS011;56298;49.246;9.410;2023-05-21T00:11:46;23.10;;;15.57;;
69185;SDS011;56298;49.246;9.410;2023-05-21T00:14:11;23.17;;;15.60;;
69185;SDS011;56298;49.246;9.410;2023-05-21T00:16:37;25.37;;;15.33;;
69185;SDS011;56298;49.246;9.410;2023-05-21T00:19:02;23.67;;;15.03;;
69185;SDS011;56298;49.246;9.410;2023-05-21T00:21:27;24.93;;;15.27;;
69185;SDS011;56298;49.246;9.410;2023-05-21T00:23:53;23.10;;;15.48;;
69185;SDS011;56298;49.246;9.410;2023-05-21T00:26:20;23.35;;;15.60;;
69185;SDS011;56298;49.246;9.410;2023-05-21T00:28:45;21.77;;;14.60;;
69185;SDS011;56298;49.246;9.410;2023-05-21T00:31:11;24.37;;;15.07;;
69185;SDS011;56298;49.246;9.410;2023-05-21T00:33:36;22.63;;;15.30;;
69185;SDS011;56298;49.246;9.410;2023-05-21T00:36:01;23.20;;;15.07;;
69185;SDS011;56298;49.246;9.410;2023-05-21T00:38:27;24.17;;;15.23;;
69185;SDS011;56298;49.246;9.410;2023-05-21T00:40:52;22.93;;;15.57;;
69185;SDS011;56298;49.246;9.410;2023-05-21T00:43:17;23.77;;;15.60;;
69185;SDS011;56298;49.246;9.410;2023-05-21T00:45:43;25.20;;;15.70;;
69185;SDS011;56298;49.246;9.410;2023-05-21T00:48:10;24.70;;;15.40;;
69185;SDS011;56298;49.246;9.410;2023-05-21T00:50:36;23.50;;;16.02;;
69185;SDS011;56298;49.246;9.410;2023-05-21T00:53:04;22.98;;;15.38;;
69185;SDS011;56298;49.246;9.410;2023-05-21T00:55:33;25.23;;;15.57;;
69185;SDS011;56298;49.246;9.410;2023-05-21T00:57:59;24.23;;;15.43;;
69185;SDS011;56298;49.246;9.410;2023-05-21T01:00:25;23.07;;;15.90;;
69185;SDS011;56298;49.246;9.410;2023-05-21T01:02:50;24.37;;;15.70;;
69185;SDS011;56298;49.246;9.410;2023-05-21T01:05:16;24.63;;;15.13;;
69185;SDS011;56298;49.246;9.410;2023-05-21T01:07:42;23.33;;;15.63;;
69185;SDS011;56298;49.246;9.410;2023-05-21T01:10:08;23.20;;;15.77;;
69185;SDS011;56298;49.246;9.410;2023-05-21T01:12:35;23.03;;;15.73;;
69185;SDS011;56298;49.246;9.410;2023-05-21T01:15:03;24.15;;;15.50;;
69185;SDS011;56298;49.246;9.410;2023-05-21T01:17:29;22.90;;;15.27;;
69185;SDS011;56298;49.246;9.410;2023-05-21T01:19:56;23.40;;;15.45;;
69185;SDS011;56298;49.246;9.410;2023-05-21T01:22:22;26.58;;;15.60;;
69185;SDS011;56298;49.246;9.410;2023-05-21T01:24:49;23.70;;;15.23;;
69185;SDS011;56298;49.246;9.410;2023-05-21T01:27:14;23.02;;;15.63;;
69185;SDS011;56298;49.246;9.410;2023-05-21T01:29:40;24.27;;;14.53;;
69185;SDS011;56298;49.246;9.410;2023-05-21T01:35:04;23.98;;;15.35;;
69185;SDS011;56298;49.246;9.410;2023-05-21T01:37:43;23.17;;;15.23;;
69185;SDS011;56298;49.246;9.410;2023-05-21T01:40:25;24.35;;;15.13;;
69185;SDS011;56298;49.246;9.410;2023-05-21T01:42:55;22.88;;;15.43;;
69185;SDS011;56298;49.246;9.410;2023-05-21T01:45:22;23.73;;;15.57;;
69185;SDS011;56298;49.246;9.410;2023-05-21T01:47:49;24.92;;;15.38;;
69185;SDS011;56298;49.246;9.410;2023-05-21T01:50:17;22.73;;;15.05;;
69185;SDS011;56298;49.246;9.410;2023-05-21T01:52:53;23.23;;;14.60;;
69185;SDS011;56298;49.246;9.410;2023-05-21T01:55:25;23.43;;;15.23;;
69185;SDS011;56298;49.246;9.410;2023-05-21T01:57:52;23.80;;;14.68;;
69185;SDS011;56298;49.246;9.410;2023-05-21T02:00:19;22.73;;;14.77;;
69185;SDS011;56298;49.246;9.410;2023-05-21T02:02:49;22.33;;;14.83;;
69185;SDS011;56298;49.246;9.410;2023-05-21T02:05:14;21.15;;;14.77;;
69185;SDS011;56298;49.246;9.410;2023-05-21T02:07:40;22.33;;;14.97;;
69185;SDS011;56298;49.246;9.410;2023-05-21T02:10:08;24.02;;;15.05;;
69185;SDS011;56298;49.246;9.410;2023-05-21T02:12:33;22.02;;;14.55;;
69185;SDS011;56298;49.246;9.410;2023-05-21T02:14:59;22.60;;;14.93;;
69185;SDS011;56298;49.246;9.410;2023-05-21T02:17:24;22.13;;;15.37;;
69185;SDS011;56298;49.246;9.410;2023-05-21T02:19:50;20.67;;;14.63;;
69185;SDS011;56298;49.246;9.410;2023-05-21T02:22:15;22.03;;;14.40;;
69185;SDS011;56298;49.246;9.410;2023-05-21T02:24:40;23.87;;;15.03;;
69185;SDS011;56298;49.246;9.410;2023-05-21T02:27:06;20.85;;;14.98;;
69185;SDS011;56298;49.246;9.410;2023-05-21T02:29:34;21.85;;;14.20;;
69185;SDS011;56298;49.246;9.410;2023-05-21T02:32:00;22.80;;;14.87;;
69185;SDS011;56298;49.246;9.410;2023-05-21T02:34:25;24.87;;;15.30;;
69185;SDS011;56298;49.246;9.410;2023-05-21T02:36:50;22.17;;;14.67;;
69185;SDS011;56298;49.246;9.410;2023-05-21T02:39:18;23.83;;;14.77;;
69185;SDS011;56298;49.246;9.410;2023-05-21T02:41:44;22.87;;;14.87;;
69185;SDS011;56298;49.246;9.410;2023-05-21T02:44:11;21.37;;;15.07;;
69185;SDS011;56298;49.246;9.410;2023-05-21T02:46:36;21.65;;;14.30;;
69185;SDS011;56298;49.246;9.410;2023-05-21T02:49:01;22.00;;;14.90;;
69185;SDS011;56298;49.246;9.410;2023-05-21T02:51:26;22.17;;;14.18;;
69185;SDS011;56298;49.246;9.410;2023-05-21T02:53:52;21.10;;;14.47;;
69185;SDS011;56298;49.246;9.410;2023-05-21T02:56:17;20.60;;;14.30;;
69185;SDS011;56298;49.246;9.410;2023-05-21T02:58:42;22.17;;;14.97;;
69185;SDS011;56298;49.246;9.410;2023-05-21T03:01:08;22.70;;;14.30;;
69185;SDS011;56298;49.246;9.410;2023-05-21T03:03:33;21.80;;;14.73;;
69185;SDS011;56298;49.246;9.410;2023-05-21T03:05:58;23.43;;;14.50;;
69185;SDS011;56298;49.246;9.410;2023-05-21T03:08:23;22.43;;;14.57;;
69185;SDS011;56298;49.246;9.410;2023-05-21T03:10:50;22.08;;;14.52;;
69185;SDS011;56298;49.246;9.410;2023-05-21T03:13:15;22.60;;;14.40;;
69185;SDS011;56298;49.246;9.410;2023-05-21T03:15:41;21.73;;;14.53;;
69185;SDS011;56298;49.246;9.410;2023-05-21T03:18:07;21.67;;;14.80;;
69185;SDS011;56298;49.246;9.410;2023-05-21T03:20:33;22.50;;;14.27;;
69185;SDS011;56298;49.246;9.410;2023-05-21T03:22:58;22.77;;;14.47;;
69185;SDS011;56298;49.246;9.410;2023-05-21T03:25:24;21.47;;;14.90;;
69185;SDS011;56298;49.246;9.410;2023-05-21T03:27:49;22.87;;;15.00;;
69185;SDS011;56298;49.246;9.410;2023-05-21T03:30:16;22.00;;;14.13;;
69185;SDS011;56298;49.246;9.410;2023-05-21T03:32:41;20.73;;;14.37;;
69185;SDS011;56298;49.246;9.410;2023-05-21T03:35:08;21.80;;;14.20;;
69185;SDS011;56298;49.246;9.410;2023-05-21T03:37:34;21.87;;;14.10;;
69185;SDS011;56298;49.246;9.410;2023-05-21T03:39:59;22.47;;;14.50;;
69185;SDS011;56298;49.246;9.410;2023-05-21T03:42:24;23.20;;;14.37;;
69185;SDS011;56298;49.246;9.410;2023-05-21T03:44:50;22.10;;;14.53;;
69185;SDS011;56298;49.246;9.410;2023-05-21T03:47:15;21.93;;;14.53;;
69185;SDS011;56298;49.246;9.410;2023-05-21T03:49:40;21.53;;;14.90;;
69185;SDS011;56298;49.246;9.410;2023-05-21T03:52:05;21.10;;;14.33;;
69185;SDS011;56298;49.246;9.410;2023-05-21T03:54:31;20.57;;;14.37;;
69185;SDS011;56298;49.246;9.410;2023-05-21T03:56:56;21.27;;;14.30;;
69185;SDS011;56298;49.246;9.410;2023-05-21T03:59:21;20.27;;;14.10;;
69185;SDS011;56298;49.246;9.410;2023-05-21T04:01:46;21.57;;;14.23;;
69185;SDS011;56298;49.246;9.410;2023-05-21T04:04:12;21.83;;;14.27;;
69185;SDS011;56298;49.246;9.410;2023-05-21T04:06:37;21.27;;;13.63;;
69185;SDS011;56298;49.246;9.410;2023-05-21T04:09:02;23.10;;;14.43;;
69185;SDS011;56298;49.246;9.410;2023-05-21T04:11:28;20.17;;;14.25;;
69185;SDS011;56298;49.246;9.410;2023-05-21T04:13:55;21.17;;;14.13;;
69185;SDS011;56298;49.246;9.410;2023-05-21T04:16:20;20.97;;;13.87;;
69185;SDS011;56298;49.246;9.410;2023-05-21T04:18:46;20.42;;;13.68;;
69185;SDS011;56298;49.246;9.410;2023-05-21T04:21:12;20.53;;;14.13;;
69185;SDS011;56298;49.246;9.410;2023-05-21T04:23:37;21.57;;;13.93;;
69185;SDS011;56298;49.246;9.410;2023-05-21T04:26:02;21.13;;;14.10;;
69185;SDS011;56298;49.246;9.410;2023-05-21T04:28:28;19.52;;;13.50;;
69185;SDS011;56298;49.246;9.410;2023-05-21T04:30:54;20.83;;;13.90;;
69185;SDS011;56298;49.246;9.410;2023-05-21T04:33:20;21.33;;;13.82;;
69185;SDS011;56298;49.246;9.410;2023-05-21T04:35:46;20.00;;;13.70;;
69185;SDS011;56298;49.246;9.410;2023-05-21T04:38:13;20.70;;;14.03;;
69185;SDS011;56298;49.246;9.410;2023-05-21T04:40:44;20.92;;;14.13;;
69185;SDS011;56298;49.246;9.410;2023-05-21T04:43:11;20.48;;;13.50;;
69185;SDS011;56298;49.246;9.410;2023-05-21T04:45:36;19.10;;;13.03;;
69185;SDS011;56298;49.246;9.410;2023-05-21T04:48:01;20.63;;;13.83;;
69185;SDS011;56298;49.246;9.410;2023-05-21T04:50:27;21.07;;;13.53;;
69185;SDS011;56298;49.246;9.410;2023-05-21T04:52:54;20.13;;;13.02;;
69185;SDS011;56298;49.246;9.410;2023-05-21T04:55:20;20.20;;;13.30;;
69185;SDS011;56298;49.246;9.410;2023-05-21T04:57:46;18.83;;;13.05;;
69185;SDS011;56298;49.246;9.410;2023-05-21T05:00:12;20.10;;;12.98;;
69185;SDS011;56298;49.246;9.410;2023-05-21T05:02:38;19.10;;;13.70;;
69185;SDS011;56298;49.246;9.410;2023-05-21T05:05:03;20.03;;;13.00;;
69185;SDS011;56298;49.246;9.410;2023-05-21T05:07:29;21.23;;;13.30;;
69185;SDS011;56298;49.246;9.410;2023-05-21T05:09:54;19.27;;;12.67;;
69185;SDS011;56298;49.246;9.410;2023-05-21T05:12:19;19.03;;;12.90;;
69185;SDS011;56298;49.246;9.410;2023-05-21T05:14:44;18.77;;;12.70;;
69185;SDS011;56298;49.246;9.410;2023-05-21T05:17:10;19.10;;;13.40;;
69185;SDS011;56298;49.246;9.410;2023-05-21T05:19:38;18.23;;;12.43;;
69185;SDS011;56298;49.246;9.410;2023-05-21T05:22:03;18.93;;;12.23;;
69185;SDS011;56298;49.246;9.410;2023-05-21T05:24:29;18.47;;;12.97;;
69185;SDS011;56298;49.246;9.410;2023-05-21T05:26:54;17.87;;;12.43;;
69185;SDS011;56298;49.246;9.410;2023-05-21T05:29:19;18.63;;;12.63;;
69185;SDS011;56298;49.246;9.410;2023-05-21T05:31:45;19.80;;;12.20;;
69185;SDS011;56298;49.246;9.410;2023-05-21T05:34:10;17.03;;;12.03;;
69185;SDS011;56298;49.246;9.410;2023-05-21T05:36:35;17.03;;;11.93;;
69185;SDS011;56298;49.246;9.410;2023-05-21T05:39:00;19.67;;;12.33;;
69185;SDS011;56298;49.246;9.410;2023-05-21T05:41:26;17.77;;;12.20;;
69185;SDS011;56298;49.246;9.410;2023-05-21T05:43:51;18.63;;;12.10;;
69185;SDS011;56298;49.246;9.410;2023-05-21T05:46:16;19.07;;;11.90;;
69185;SDS011;56298;49.246;9.410;2023-05-21T05:48:41;18.23;;;11.63;;
69185;SDS011;56298;49.246;9.410;2023-05-21T05:51:07;18.77;;;11.90;;
69185;SDS011;56298;49.246;9.410;2023-05-21T05:53:32;16.87;;;11.57;;
69185;SDS011;56298;49.246;9.410;2023-05-21T05:55:57;17.70;;;11.53;;
69185;SDS011;56298;49.246;9.410;2023-05-21T05:58:23;16.92;;;11.77;;
69185;SDS011;56298;49.246;9.410;2023-05-21T06:00:48;16.33;;;11.30;;
69185;SDS011;56298;49.246;9.410;2023-05-21T06:03:14;16.10;;;11.38;;
69185;SDS011;56298;49.246;9.410;2023-05-21T06:05:40;17.27;;;11.02;;
69185;SDS011;56298;49.246;9.410;2023-05-21T06:08:05;15.52;;;11.13;;
69185;SDS011;56298;49.246;9.410;2023-05-21T06:10:30;17.63;;;11.35;;
69185;SDS011;56298;49.246;9.410;2023-05-21T06:12:56;15.80;;;10.67;;
69185;SDS011;56298;49.246;9.410;2023-05-21T06:15:21;15.03;;;10.87;;
69185;SDS011;56298;49.246;9.410;2023-05-21T06:17:46;16.33;;;10.77;;
69185;SDS011;56298;49.246;9.410;2023-05-21T06:20:11;15.47;;;10.90;;
69185;SDS011;56298;49.246;9.410;2023-05-21T06:22:38;14.48;;;10.20;;
69185;SDS011;56298;49.246;9.410;2023-05-21T06:25:03;15.43;;;10.53;;
69185;SDS011;56298;49.246;9.410;2023-05-21T06:27:29;15.10;;;10.60;;
69185;SDS011;56298;49.246;9.410;2023-05-21T06:29:55;14.30;;;9.82;;
69185;SDS011;56298;49.246;9.410;2023-05-21T06:32:21;14.47;;;10.07;;
69185;SDS011;56298;49.246;9.410;2023-05-21T06:34:46;14.48;;;10.88;;
69185;SDS011;56298;49.246;9.410;2023-05-21T06:37:12;14.70;;;10.23;;
69185;SDS011;56298;49.246;9.410;2023-05-21T06:39:37;15.05;;;10.23;;
69185;SDS011;56298;49.246;9.410;2023-05-21T06:42:02;14.38;;;10.02;;
69185;SDS011;56298;49.246;9.410;2023-05-21T06:44:27;13.75;;;10.13;;
69185;SDS011;56298;49.246;9.410;2023-05-21T06:46:53;12.80;;;9.07;;
69185;SDS011;56298;49.246;9.410;2023-05-21T06:49:18;13.23;;;9.73;;
69185;SDS011;56298;49.246;9.410;2023-05-21T06:51:43;13.23;;;9.97;;
69185;SDS011;56298;49.246;9.410;2023-05-21T06:54:09;11.20;;;9.10;;
69185;SDS011;56298;49.246;9.410;2023-05-21T06:56:34;12.57;;;9.13;;
69185;SDS011;56298;49.246;9.410;2023-05-21T06:58:59;13.23;;;9.40;;
69185;SDS011;56298;49.246;9.410;2023-05-21T07:01:24;12.20;;;9.53;;
69185;SDS011;56298;49.246;9.410;2023-05-21T07:03:50;12.33;;;9.27;;
69185;SDS011;56298;49.246;9.410;2023-05-21T07:06:15;10.83;;;8.57;;
69185;SDS011;56298;49.246;9.410;2023-05-21T07:08:41;12.80;;;8.97;;
69185;SDS011;56298;49.246;9.410;2023-05-21T07:11:06;12.73;;;8.90;;
69185;SDS011;56298;49.246;9.410;2023-05-21T07:13:31;11.73;;;8.93;;
69185;SDS011;56298;49.246;9.410;2023-05-21T07:15:57;11.97;;;8.80;;
69185;SDS011;56298;49.246;9.410;2023-05-21T07:18:22;10.87;;;8.50;;
69185;SDS011;56298;49.246;9.410;2023-05-21T07:20:47;10.13;;;7.73;;
69185;SDS011;56298;49.246;9.410;2023-05-21T07:23:12;11.90;;;8.70;;
69185;SDS011;56298;49.246;9.410;2023-05-21T07:25:38;10.53;;;8.53;;
69185;SDS011;56298;49.246;9.410;2023-05-21T07:28:03;9.67;;;7.03;;
69185;SDS011;56298;49.246;9.410;2023-05-21T07:30:28;8.90;;;6.90;;
69185;SDS011;56298;49.246;9.410;2023-05-21T07:32:54;9.33;;;6.67;;
69185;SDS011;56298;49.246;9.410;2023-05-21T07:35:19;10.55;;;7.13;;
69185;SDS011;56298;49.246;9.410;2023-05-21T07:37:44;9.52;;;7.43;;
69185;SDS011;56298;49.246;9.410;2023-05-21T07:40:10;11.37;;;6.70;;
69185;SDS011;56298;49.246;9.410;2023-05-21T07:42:36;9.15;;;6.78;;
69185;SDS011;56298;49.246;9.410;2023-05-21T07:45:01;9.50;;;6.57;;
69185;SDS011;56298;49.246;9.410;2023-05-21T07:47:27;9.87;;;6.80;;
69185;SDS011;56298;49.246;9.410;2023-05-21T07:49:52;9.50;;;6.60;;
69185;SDS011;56298;49.246;9.410;2023-05-21T07:52:17;9.30;;;6.83;;
69185;SDS011;56298;49.246;9.410;2023-05-21T07:54:43;10.23;;;6.67;;
69185;SDS011;56298;49.246;9.410;2023-05-21T07:57:08;10.43;;;6.63;;
69185;SDS011;56298;49.246;9.410;2023-05-21T07:59:33;9.73;;;6.67;;
69185;SDS011;56298;49.246;9.410;2023-05-21T08:01:58;9.90;;;6.70;;
69185;SDS011;56298;49.246;9.410;2023-05-21T08:04:24;10.13;;;6.90;;
69185;SDS011;56298;49.246;9.410;2023-05-21T08:06:49;12.97;;;7.27;;
69185;SDS011;56298;49.246;9.410;2023-05-21T08:09:15;10.38;;;6.85;;
69185;SDS011;56298;49.246;9.410;2023-05-21T08:11:40;9.47;;;6.50;;
69185;SDS011;56298;49.246;9.410;2023-05-21T08:14:05;9.40;;;6.70;;
69185;SDS011;56298;49.246;9.410;2023-05-21T08:16:31;9.27;;;6.50;;
69185;SDS011;56298;49.246;9.410;2023-05-21T08:18:56;10.20;;;6.70;;
69185;SDS011;56298;49.246;9.410;2023-05-21T08:21:21;10.67;;;6.83;;
69185;SDS011;56298;49.246;9.410;2023-05-21T08:23:47;10.33;;;6.87;;
69185;SDS011;56298;49.246;9.410;2023-05-21T08:26:12;9.93;;;6.87;;
69185;SDS011;56298;49.246;9.410;2023-05-21T08:28:40;9.52;;;6.35;;
69185;SDS011;56298;49.246;9.410;2023-05-21T08:31:05;10.00;;;6.50;;
69185;SDS011;56298;49.246;9.410;2023-05-21T08:33:33;11.00;;;6.63;;
69185;SDS011;56298;49.246;9.410;2023-05-21T08:36:01;9.88;;;6.50;;
69185;SDS011;56298;49.246;9.410;2023-05-21T08:38:26;10.57;;;6.80;;
69185;SDS011;56298;49.246;9.410;2023-05-21T08:40:51;11.33;;;6.60;;
69185;SDS011;56298;49.246;9.410;2023-05-21T08:43:18;11.03;;;6.60;;
69185;SDS011;56298;49.246;9.410;2023-05-21T08:45:46;9.63;;;6.78;;
69185;SDS011;56298;49.246;9.410;2023-05-21T08:48:17;11.85;;;6.93;;
69185;SDS011;56298;49.246;9.410;2023-05-21T08:50:43;10.20;;;6.63;;
69185;SDS011;56298;49.246;9.410;2023-05-21T08:53:09;10.85;;;6.60;;
69185;SDS011;56298;49.246;9.410;2023-05-21T08:55:34;10.68;;;6.60;;
69185;SDS011;56298;49.246;9.410;2023-05-21T08:58:01;9.25;;;6.28;;
69185;SDS011;56298;49.246;9.410;2023-05-21T09:00:28;9.82;;;6.80;;
69185;SDS011;56298;49.246;9.410;2023-05-21T09:02:53;9.67;;;6.70;;
69185;SDS011;56298;49.246;9.410;2023-05-21T09:05:20;10.50;;;6.50;;
69185;SDS011;56298;49.246;9.410;2023-05-21T09:07:47;9.25;;;6.65;;
69185;SDS011;56298;49.246;9.410;2023-05-21T09:10:20;10.82;;;6.30;;
69185;SDS011;56298;49.246;9.410;2023-05-21T09:12:50;9.25;;;6.53;;
69185;SDS011;56298;49.246;9.410;2023-05-21T09:15:16;9.60;;;6.47;;
69185;SDS011;56298;49.246;9.410;2023-05-21T09:17:42;8.90;;;6.20;;
69185;SDS011;56298;49.246;9.410;2023-05-21T09:20:12;10.02;;;6.18;;
69185;SDS011;56298;49.246;9.410;2023-05-21T09:22:42;9.60;;;6.43;;
69185;SDS011;56298;49.246;9.410;2023-05-21T09:25:10;10.27;;;6.00;;
69185;SDS011;56298;49.246;9.410;2023-05-21T09:27:36;9.90;;;6.20;;
69185;SDS011;56298;49.246;9.410;2023-05-21T09:30:03;8.68;;;6.28;;
69185;SDS011;56298;49.246;9.410;2023-05-21T09:32:30;9.18;;;6.05;;
69185;SDS011;56298;49.246;9.410;2023-05-21T09:34:55;9.83;;;6.10;;
69185;SDS011;56298;49.246;9.410;2023-05-21T09:37:21;9.30;;;6.57;;
69185;SDS011;56298;49.246;9.410;2023-05-21T09:39:49;9.57;;;6.15;;
69185;SDS011;56298;49.246;9.410;2023-05-21T09:42:15;9.85;;;6.53;;
69185;SDS011;56298;49.246;9.410;2023-05-21T09:44:45;11.07;;;7.03;;
69185;SDS011;56298;49.246;9.410;2023-05-21T09:47:11;10.25;;;6.70;;
69185;SDS011;56298;49.246;9.410;2023-05-21T09:49:36;9.10;;;6.90;;
69185;SDS011;56298;49.246;9.410;2023-05-21T09:52:02;9.52;;;6.95;;
69185;SDS011;56298;49.246;9.410;2023-05-21T09:54:31;11.73;;;6.87;;
69185;SDS011;56298;49.246;9.410;2023-05-21T09:56:58;10.20;;;7.20;;
69185;SDS011;56298;49.246;9.410;2023-05-21T09:59:33;11.32;;;6.78;;
69185;SDS011;56298;49.246;9.410;2023-05-21T10:01:59;10.03;;;6.63;;
69185;SDS011;56298;49.246;9.410;2023-05-21T10:04:26;10.27;;;6.80;;
69185;SDS011;56298;49.246;9.410;2023-05-21T10:06:51;12.05;;;7.22;;
69185;SDS011;56298;49.246;9.410;2023-05-21T10:09:17;11.23;;;7.40;;
69185;SDS011;56298;49.246;9.410;2023-05-21T10:11:43;11.02;;;7.18;;
69185;SDS011;56298;49.246;9.410;2023-05-21T10:14:12;9.90;;;7.20;;
69185;SDS011;56298;49.246;9.410;2023-05-21T10:16:42;10.80;;;7.60;;
69185;SDS011;56298;49.246;9.410;2023-05-21T10:19:08;9.52;;;7.13;;
69185;SDS011;56298;49.246;9.410;2023-05-21T10:21:35;11.47;;;7.50;;
69185;SDS011;56298;49.246;9.410;2023-05-21T10:24:01;9.60;;;7.07;;
69185;SDS011;56298;49.246;9.410;2023-05-21T10:26:26;10.40;;;7.13;;
69185;SDS011;56298;49.246;9.410;2023-05-21T10:28:53;11.47;;;7.53;;
69185;SDS011;56298;49.246;9.410;2023-05-21T10:31:20;11.20;;;7.93;;
69185;SDS011;56298;49.246;9.410;2023-05-21T10:33:47;10.00;;;7.82;;
69185;SDS011;56298;49.246;9.410;2023-05-21T10:36:12;10.45;;;7.03;;
69185;SDS011;56298;49.246;9.410;2023-05-21T10:38:40;10.45;;;7.32;;
69185;SDS011;56298;49.246;9.410;2023-05-21T10:41:07;9.52;;;6.85;;
69185;SDS011;56298;49.246;9.410;2023-05-21T10:43:42;8.95;;;6.68;;
69185;SDS011;56298;49.246;9.410;2023-05-21T10:59:46;10.93;;;7.20;;
69185;SDS011;56298;49.246;9.410;2023-05-21T11:02:13;11.77;;;7.13;;
69185;SDS011;56298;49.246;9.410;2023-05-21T11:04:40;9.18;;;6.57;;
69185;SDS011;56298;49.246;9.410;2023-05-21T11:07:09;9.57;;;6.30;;
69185;SDS011;56298;49.246;9.410;2023-05-21T11:09:36;10.73;;;7.30;;
69185;SDS011;56298;49.246;9.410;2023-05-21T11:12:02;11.68;;;7.28;;
69185;SDS011;56298;49.246;9.410;2023-05-21T11:14:38;10.40;;;7.10;;
69185;SDS011;56298;49.246;9.410;2023-05-21T11:19:33;9.45;;;6.65;;
69185;SDS011;56298;49.246;9.410;2023-05-21T11:22:18;10.52;;;6.47;;
69185;SDS011;56298;49.246;9.410;2023-05-21T11:24:45;9.48;;;6.68;;
69185;SDS011;56298;49.246;9.410;2023-05-21T11:27:11;10.38;;;6.72;;
69185;SDS011;56298;49.246;9.410;2023-05-21T11:29:43;9.63;;;6.70;;
69185;SDS011;56298;49.246;9.410;2023-05-21T11:32:09;10.57;;;6.57;;
69185;SDS011;56298;49.246;9.410;2023-05-21T11:34:54;10.20;;;6.68;;
69185;SDS011;56298;49.246;9.410;2023-05-21T11:37:24;11.23;;;7.05;;
69185;SDS011;56298;49.246;9.410;2023-05-21T11:39:52;11.68;;;6.57;;
69185;SDS011;56298;49.246;9.410;2023-05-21T11:42:32;12.80;;;6.40;;
69185;SDS011;56298;49.246;9.410;2023-05-21T11:44:59;10.07;;;6.95;;
69185;SDS011;56298;49.246;9.410;2023-05-21T11:47:26;10.45;;;6.68;;
69185;SDS011;56298;49.246;9.410;2023-05-21T11:49:52;10.10;;;6.93;;
69185;SDS011;56298;49.246;9.410;2023-05-21T11:52:18;12.13;;;7.00;;
69185;SDS011;56298;49.246;9.410;2023-05-21T11:54:47;10.52;;;6.88;;
69185;SDS011;56298;49.246;9.410;2023-05-21T11:57:19;10.35;;;7.00;;
69185;SDS011;56298;49.246;9.410;2023-05-21T11:59:45;10.30;;;7.10;;
69185;SDS011;56298;49.246;9.410;2023-05-21T12:02:14;10.27;;;6.60;;
69185;SDS011;56298;49.246;9.410;2023-05-21T12:04:44;9.77;;;6.22;;
69185;SDS011;56298;49.246;9.410;2023-05-21T12:07:13;9.20;;;6.40;;
69185;SDS011;56298;49.246;9.410;2023-05-21T12:09:44;8.88;;;6.00;;
69185;SDS011;56298;49.246;9.410;2023-05-21T12:12:10;9.60;;;5.95;;
69185;SDS011;56298;49.246;9.410;2023-05-21T12:14:38;8.45;;;5.90;;
69185;SDS011;56298;49.246;9.410;2023-05-21T12:17:04;9.98;;;6.07;;
69185;SDS011;56298;49.246;9.410;2023-05-21T12:19:32;10.23;;;5.90;;
69185;SDS011;56298;49.246;9.410;2023-05-21T12:22:07;9.00;;;5.65;;
69185;SDS011;56298;49.246;9.410;2023-05-21T12:24:33;9.70;;;5.70;;
69185;SDS011;56298;49.246;9.410;2023-05-21T12:27:00;8.87;;;5.50;;
69185;SDS011;56298;49.246;9.410;2023-05-21T12:29:26;8.35;;;5.93;;
69185;SDS011;56298;49.246;9.410;2023-05-21T12:31:52;8.75;;;6.25;;
69185;SDS011;56298;49.246;9.410;2023-05-21T12:37:06;9.45;;;5.97;;
69185;SDS011;56298;49.246;9.410;2023-05-21T12:39:32;9.07;;;5.57;;
69185;SDS011;56298;49.246;9.410;2023-05-21T12:42:01;7.68;;;5.65;;
69185;SDS011;56298;49.246;9.410;2023-05-21T12:44:33;8.43;;;5.80;;
69185;SDS011;56298;49.246;9.410;2023-05-21T12:46:58;8.15;;;5.63;;
69185;SDS011;56298;49.246;9.410;2023-05-21T12:52:12;9.00;;;5.68;;
69185;SDS011;56298;49.246;9.410;2023-05-21T12:54:43;12.02;;;6.47;;
69185;SDS011;56298;49.246;9.410;2023-05-21T12:57:13;11.23;;;6.75;;
69185;SDS011;56298;49.246;9.410;2023-05-21T12:59:50;10.13;;;6.32;;
69185;SDS011;56298;49.246;9.410;2023-05-21T13:02:38;9.80;;;6.28;;
69185;SDS011;56298;49.246;9.410;2023-05-21T13:05:07;9.07;;;6.20;;
69185;SDS011;56298;49.246;9.410;2023-05-21T13:07:34;8.85;;;6.32;;
69185;SDS011;56298;49.246;9.410;2023-05-21T13:10:01;9.90;;;6.45;;
69185;SDS011;56298;49.246;9.410;2023-05-21T13:12:28;8.23;;;6.03;;
69185;SDS011;56298;49.246;9.410;2023-05-21T13:14:55;8.95;;;6.32;;
69185;SDS011;56298;49.246;9.410;2023-05-21T13:17:22;9.50;;;6.10;;
69185;SDS011;56298;49.246;9.410;2023-05-21T13:20:07;8.98;;;6.65;;
69185;SDS011;56298;49.246;9.410;2023-05-21T13:22:33;10.52;;;6.68;;
69185;SDS011;56298;49.246;9.410;2023-05-21T13:24:59;9.07;;;6.70;;
69185;SDS011;56298;49.246;9.410;2023-05-21T13:27:25;10.73;;;6.90;;
69185;SDS011;56298;49.246;9.410;2023-05-21T13:29:51;10.00;;;6.45;;
69185;SDS011;56298;49.246;9.410;2023-05-21T13:32:16;9.67;;;7.00;;
69185;SDS011;56298;49.246;9.410;2023-05-21T13:34:42;11.45;;;7.03;;
69185;SDS011;56298;49.246;9.410;2023-05-21T13:37:07;11.07;;;7.40;;
69185;SDS011;56298;49.246;9.410;2023-05-21T13:39:33;11.00;;;7.40;;
69185;SDS011;56298;49.246;9.410;2023-05-21T13:41:58;10.67;;;7.57;;
69185;SDS011;56298;49.246;9.410;2023-05-21T13:44:23;10.07;;;7.00;;
69185;SDS011;56298;49.246;9.410;2023-05-21T13:46:48;11.17;;;7.00;;
69185;SDS011;56298;49.246;9.410;2023-05-21T13:49:14;10.50;;;7.30;;
69185;SDS011;56298;49.246;9.410;2023-05-21T13:51:39;10.50;;;6.83;;
69185;SDS011;56298;49.246;9.410;2023-05-21T13:54:04;10.30;;;7.00;;
69185;SDS011;56298;49.246;9.410;2023-05-21T13:56:30;10.77;;;7.13;;
69185;SDS011;56298;49.246;9.410;2023-05-21T13:58:57;10.50;;;6.72;;
69185;SDS011;56298;49.246;9.410;2023-05-21T14:01:22;10.87;;;6.73;;
69185;SDS011;56298;49.246;9.410;2023-05-21T14:03:48;9.33;;;6.40;;
69185;SDS011;56298;49.246;9.410;2023-05-21T14:06:13;11.37;;;7.00;;
69185;SDS011;56298;49.246;9.410;2023-05-21T14:08:38;11.17;;;6.60;;
69185;SDS011;56298;49.246;9.410;2023-05-21T14:11:03;10.70;;;7.23;;
69185;SDS011;56298;49.246;9.410;2023-05-21T14:13:29;9.93;;;7.33;;
69185;SDS011;56298;49.246;9.410;2023-05-21T14:15:54;10.65;;;7.43;;
69185;SDS011;56298;49.246;9.410;2023-05-21T14:18:19;10.85;;;7.40;;
69185;SDS011;56298;49.246;9.410;2023-05-21T14:20:45;10.38;;;7.57;;
69185;SDS011;56298;49.246;9.410;2023-05-21T14:23:10;9.90;;;7.10;;
69185;SDS011;56298;49.246;9.410;2023-05-21T14:25:35;10.67;;;7.20;;
69185;SDS011;56298;49.246;9.410;2023-05-21T14:28:01;10.83;;;7.40;;
69185;SDS011;56298;49.246;9.410;2023-05-21T14:30:26;10.27;;;6.93;;
69185;SDS011;56298;49.246;9.410;2023-05-21T14:32:51;11.13;;;7.60;;
69185;SDS011;56298;49.246;9.410;2023-05-21T14:35:16;13.27;;;7.27;;
69185;SDS011;56298;49.246;9.410;2023-05-21T14:37:42;11.20;;;7.47;;
69185;SDS011;56298;49.246;9.410;2023-05-21T14:40:07;11.70;;;7.77;;
69185;SDS011;56298;49.246;9.410;2023-05-21T14:42:33;11.10;;;7.50;;
69185;SDS011;56298;49.246;9.410;2023-05-21T14:44:59;11.50;;;7.80;;
69185;SDS011;56298;49.246;9.410;2023-05-21T14:47:24;10.50;;;8.02;;
69185;SDS011;56298;49.246;9.410;2023-05-21T14:49:50;10.60;;;7.90;;
69185;SDS011;56298;49.246;9.410;2023-05-21T14:52:15;10.80;;;7.80;;